Time;durP1;ratioP1;P1;durP2;ratioP2;P2;SDS_P1;SDS_P2;PMS_P1;PMS_P2;Temp;Humidity;BMP_temperature;BMP_pressure;BME280_temperature;BME280_humidity;BME280_pressure;Samples;Min_cycle;Max_cycle;Signal;HPM_P1;HPM_P2
2023/06/23 00:01:30;;;;;;;2.57;1.67;;;;;;;20.66;75.04;99730.16;4935730;28;20462;-74
2023/06/23 00:03:55;;;;;;;3.17;1.50;;;;;;;20.68;74.89;99744.13;4939095;28;20599;-74
2023/06/23 00:06:21;;;;;;;4.80;2.23;;;;;;;20.69;75.22;99754.66;4937737;28;20434;-74
2023/06/23 00:08:47;;;;;;;2.40;2.20;;;;;;;20.74;75.21;99756.88;4939966;28;20517;-74
2023/06/23 00:11:13;;;;;;;5.07;2.00;;;;;;;20.76;75.04;99762.88;4940042;28;20217;-75
2023/06/23 00:13:38;;;;;;;1.80;1.43;;;;;;;20.74;74.92;99775.56;4936639;28;20523;-74
2023/06/23 00:16:05;;;;;;;2.77;1.70;;;;;;;20.72;75.16;99770.38;4937667;28;20239;-75
2023/06/23 00:18:35;;;;;;;3.53;2.07;;;;;;;20.72;75.22;99781.03;4940634;28;20723;-75
2023/06/23 00:21:04;;;;;;;2.83;1.90;;;;;;;20.75;75.09;99787.91;4935984;28;20467;-74
2023/06/23 00:23:30;;;;;;;2.43;1.70;;;;;;;20.77;74.93;99777.91;4937327;28;20457;-75
2023/06/23 00:25:57;;;;;;;2.07;1.80;;;;;;;20.77;74.88;99781.41;4937137;28;20925;-75
2023/06/23 00:28:22;;;;;;;2.30;1.60;;;;;;;20.80;75.05;99782.94;4938093;28;21002;-75
2023/06/23 00:30:49;;;;;;;1.77;1.50;;;;;;;20.82;74.88;99794.28;4921868;28;20566;-75
2023/06/23 00:33:14;;;;;;;3.90;1.73;;;;;;;20.81;74.86;99787.25;4921042;28;20243;-75
2023/06/23 00:35:40;;;;;;;3.30;2.00;;;;;;;20.85;74.84;99785.13;4919722;28;21031;-75
2023/06/23 00:38:07;;;;;;;2.37;2.17;;;;;;;20.87;75.01;99786.59;4935595;28;20241;-75
2023/06/23 00:40:33;;;;;;;3.50;2.50;;;;;;;20.88;74.88;99795.47;4922169;28;20914;-75
2023/06/23 00:42:58;;;;;;;2.57;1.80;;;;;;;20.91;74.85;99796.00;4920771;28;20451;-76
2023/06/23 00:45:24;;;;;;;2.63;1.93;;;;;;;20.90;74.79;99802.34;4936274;28;20238;-74
2023/06/23 00:47:51;;;;;;;2.83;2.53;;;;;;;20.91;74.48;99808.50;4921522;28;20229;-75
2023/06/23 00:50:21;;;;;;;2.13;1.73;;;;;;;20.93;74.62;99811.88;4932135;28;20463;-75
2023/06/23 00:52:52;;;;;;;3.63;2.27;;;;;;;20.94;74.34;99809.00;4939924;28;21166;-75
2023/06/23 00:55:21;;;;;;;2.90;2.03;;;;;;;20.95;73.97;99816.06;4940081;28;20472;-75
2023/06/23 01:00:49;;;;;;;24.07;3.63;;;;;;;20.86;73.65;99827.66;4851750;29;20873;-83
2023/06/23 01:03:14;;;;;;;4.30;2.30;;;;;;;20.85;73.56;99822.50;4853368;29;20565;-82
2023/06/23 01:05:40;;;;;;;4.47;2.87;;;;;;;20.84;73.29;99824.31;4848813;29;20480;-83
2023/06/23 01:08:25;;;;;;;4.73;3.13;;;;;;;20.81;73.30;99829.97;4837482;29;20207;-82
2023/06/23 01:11:02;;;;;;;5.97;3.30;;;;;;;20.80;73.16;99833.66;4867964;29;20483;-82
2023/06/23 01:13:39;;;;;;;3.60;2.80;;;;;;;20.80;73.16;99844.31;4873190;29;20480;-83
2023/06/23 01:16:14;;;;;;;3.63;2.80;;;;;;;20.80;73.07;99841.66;4871314;29;21043;-83
2023/06/23 01:18:58;;;;;;;5.00;3.20;;;;;;;20.78;72.98;99849.81;4856972;29;20906;-82
2023/06/23 01:21:54;;;;;;;4.80;2.67;;;;;;;20.80;73.02;99856.84;4869948;29;20451;-83
2023/06/23 01:24:41;;;;;;;4.27;2.93;;;;;;;20.78;72.95;99851.66;4870936;29;20893;-82
2023/06/23 01:27:29;;;;;;;4.20;3.43;;;;;;;20.77;72.96;99849.97;4856045;29;20476;-83
2023/06/23 01:29:59;;;;;;;3.10;2.30;;;;;;;20.76;73.14;99857.13;4872379;29;20460;-83
2023/06/23 01:32:28;;;;;;;3.60;2.70;;;;;;;20.74;73.05;99856.47;4872010;29;20472;-83
2023/06/23 01:35:07;;;;;;;3.80;2.70;;;;;;;20.77;73.22;99866.00;4873573;29;20465;-82
2023/06/23 01:37:35;;;;;;;6.40;4.80;;;;;;;20.80;73.32;99873.69;4872868;29;20459;-83
2023/06/23 01:40:23;;;;;;;4.80;2.90;;;;;;;20.82;73.56;99874.38;4856541;29;20485;-83
2023/06/23 01:42:56;;;;;;;3.30;3.00;;;;;;;20.82;73.35;99878.84;4868512;29;20435;-82
2023/06/23 01:45:24;;;;;;;3.50;2.83;;;;;;;20.84;73.40;99885.72;4858904;29;20528;-82
2023/06/23 01:47:52;;;;;;;4.20;2.70;;;;;;;20.83;73.16;99886.72;4875448;29;20987;-82
2023/06/23 01:50:21;;;;;;;3.97;3.60;;;;;;;20.80;73.40;99886.22;4873613;29;20452;-83
2023/06/23 01:52:49;;;;;;;4.53;3.50;;;;;;;20.77;73.30;99877.50;4868074;29;20533;-83
2023/06/23 01:55:17;;;;;;;3.63;3.33;;;;;;;20.72;73.16;99882.47;4872734;29;20982;-83
2023/06/23 01:57:45;;;;;;;3.70;3.23;;;;;;;20.70;73.08;99889.81;4873753;29;20579;-83
2023/06/23 02:00:15;;;;;;;5.33;4.50;;;;;;;20.64;73.15;99886.94;4873737;29;20508;-83
2023/06/23 02:02:43;;;;;;;5.17;4.60;;;;;;;20.61;72.87;99874.72;4884707;29;20495;-84
2023/06/23 02:05:11;;;;;;;5.70;4.22;;;;;;;20.64;73.25;99881.59;4885959;29;20468;-83
2023/06/23 02:07:40;;;;;;;5.97;4.13;;;;;;;20.66;73.33;99882.28;4887050;29;20747;-84
2023/06/23 02:10:07;;;;;;;8.27;4.07;;;;;;;20.68;73.14;99883.78;4887436;29;20612;-83
2023/06/23 02:12:35;;;;;;;5.40;4.00;;;;;;;20.67;73.00;99889.28;4883348;29;20596;-83
2023/06/23 02:15:04;;;;;;;5.13;4.00;;;;;;;20.65;72.97;99888.59;4870909;29;20544;-83
2023/06/23 02:17:30;;;;;;;6.60;5.43;;;;;;;20.66;73.11;99890.28;4879122;29;20502;-83
2023/06/23 02:19:58;;;;;;;5.40;4.73;;;;;;;20.65;72.97;99891.25;4885693;29;21710;-83
2023/06/23 02:22:27;;;;;;;4.87;4.37;;;;;;;20.62;73.06;99878.22;4880689;29;20826;-83
2023/06/23 02:24:54;;;;;;;5.73;5.03;;;;;;;20.62;73.08;99895.06;4866001;29;20464;-83
2023/06/23 02:27:21;;;;;;;9.73;6.07;;;;;;;20.67;72.99;99897.28;4879653;29;20480;-83
2023/06/23 02:29:49;;;;;;;7.47;5.30;;;;;;;20.68;73.00;99899.78;4888130;29;20459;-83
2023/06/23 02:32:16;;;;;;;8.40;5.87;;;;;;;20.70;72.74;99902.31;4881549;29;20484;-83
2023/06/23 02:34:46;;;;;;;6.03;4.90;;;;;;;20.69;73.00;99906.81;4884572;29;20446;-83
2023/06/23 02:37:16;;;;;;;6.23;5.30;;;;;;;20.71;72.88;99904.84;4884878;29;20460;-84
2023/06/23 02:39:48;;;;;;;8.70;5.70;;;;;;;20.74;73.02;99901.84;4878392;29;20668;-83
2023/06/23 02:42:16;;;;;;;6.07;5.47;;;;;;;20.77;73.22;99900.72;4882611;29;21025;-83
2023/06/23 02:44:59;;;;;;;7.60;5.33;;;;;;;20.76;73.30;99904.34;4888318;29;20898;-84
2023/06/23 02:47:27;;;;;;;8.33;5.87;;;;;;;20.73;73.19;99908.16;4884783;29;20484;-83
2023/06/23 02:49:59;;;;;;;8.87;6.57;;;;;;;20.70;73.16;99913.00;4885799;29;20556;-84
2023/06/23 02:52:28;;;;;;;7.93;6.60;;;;;;;20.65;73.22;99910.78;4885508;29;20462;-83
2023/06/23 02:54:56;;;;;;;7.73;7.03;;;;;;;20.64;73.37;99918.97;4872514;29;20456;-83
2023/06/23 02:57:24;;;;;;;9.40;7.23;;;;;;;20.62;73.15;99923.59;4884618;29;20484;-84
2023/06/23 02:59:53;;;;;;;15.10;6.33;;;;;;;20.61;73.40;99929.94;4880385;29;20487;-83
2023/06/23 03:02:22;;;;;;;8.90;7.00;;;;;;;20.61;73.37;99925.44;4865845;29;20864;-83
2023/06/23 03:04:50;;;;;;;9.07;6.97;;;;;;;20.62;73.26;99928.94;4870162;29;20461;-83
2023/06/23 03:07:15;;;;;;;9.60;6.03;;;;;;;20.61;73.18;99928.13;4880921;29;20567;-83
2023/06/23 03:09:42;;;;;;;9.80;5.73;;;;;;;20.61;73.21;99929.94;4884643;29;20556;-83
2023/06/23 03:12:08;;;;;;;8.10;5.60;;;;;;;20.60;73.32;99937.09;4871561;29;20266;-83
2023/06/23 03:14:34;;;;;;;5.40;4.67;;;;;;;20.58;73.49;99938.22;4885669;29;20812;-83
2023/06/23 03:17:15;;;;;;;5.57;4.97;;;;;;;20.60;73.47;99944.25;4882559;29;20215;-83
2023/06/23 03:19:46;;;;;;;5.30;4.63;;;;;;;20.60;73.48;99949.59;4877469;29;20558;-83
2023/06/23 03:22:23;;;;;;;5.13;4.33;;;;;;;20.60;73.55;99949.59;4884556;29;20487;-83
2023/06/23 03:24:54;;;;;;;5.00;3.77;;;;;;;20.62;73.56;99958.31;4878266;29;20892;-83
2023/06/23 03:27:22;;;;;;;7.30;4.40;;;;;;;20.62;73.69;99956.47;4875865;29;20473;-83
2023/06/23 03:30:12;;;;;;;7.07;4.10;;;;;;;20.63;73.70;99960.84;4878839;29;20572;-83
2023/06/23 03:32:43;;;;;;;4.40;4.00;;;;;;;20.64;73.51;99956.31;4857665;29;20502;-83
2023/06/23 03:35:13;;;;;;;5.53;4.70;;;;;;;20.67;73.46;99961.34;4885276;29;20804;-83
2023/06/23 03:37:47;;;;;;;6.73;4.60;;;;;;;20.68;73.50;99963.84;4876293;29;20866;-83
2023/06/23 03:40:16;;;;;;;6.07;4.40;;;;;;;20.68;73.47;99961.19;4876922;29;21117;-83
2023/06/23 03:42:47;;;;;;;6.83;4.83;;;;;;;20.69;73.49;99970.06;4874433;29;20459;-83
2023/06/23 03:45:14;;;;;;;6.53;5.20;;;;;;;20.68;73.78;99971.03;4879983;29;20486;-83
2023/06/23 03:47:43;;;;;;;4.90;4.13;;;;;;;20.69;73.54;99973.56;4882967;29;20483;-83
2023/06/23 03:50:12;;;;;;;6.30;4.70;;;;;;;20.71;73.57;99978.72;4879051;29;21069;-83
2023/06/23 03:52:41;;;;;;;7.27;4.63;;;;;;;20.71;73.66;99978.72;4878731;29;20814;-83
2023/06/23 03:55:10;;;;;;;10.13;5.50;;;;;;;20.71;73.60;99984.06;4874333;29;20655;-82
2023/06/23 03:57:37;;;;;;;8.33;5.03;;;;;;;20.72;73.63;99981.25;4884715;29;20911;-83
2023/06/23 04:00:04;;;;;;;5.73;5.13;;;;;;;20.71;73.51;99984.06;4879890;29;20582;-82
2023/06/23 04:02:41;;;;;;;6.47;5.80;;;;;;;20.70;73.59;99998.41;4888022;29;20450;-78
2023/06/23 04:05:12;;;;;;;8.80;5.87;;;;;;;20.69;73.57;99997.59;4875890;29;20472;-81
2023/06/23 04:07:40;;;;;;;9.17;5.70;;;;;;;20.70;73.88;100009.09;4886506;29;20453;-81
2023/06/23 04:10:07;;;;;;;10.63;6.37;;;;;;;20.69;73.78;100010.09;4894561;29;20461;-81
2023/06/23 04:12:33;;;;;;;5.93;5.33;;;;;;;20.68;73.73;100009.22;4892377;29;20544;-81
2023/06/23 04:15:02;;;;;;;9.40;6.60;;;;;;;20.68;73.80;100009.22;4880761;29;20487;-81
2023/06/23 04:17:29;;;;;;;9.47;6.53;;;;;;;20.66;74.02;100010.41;4885981;29;20526;-80
2023/06/23 04:19:57;;;;;;;10.20;7.07;;;;;;;20.64;73.99;100015.06;4880058;29;20522;-81
2023/06/23 04:22:25;;;;;;;9.30;5.97;;;;;;;20.63;74.16;100018.69;4886551;29;20651;-81
2023/06/23 04:24:52;;;;;;;7.73;6.73;;;;;;;20.62;73.97;100019.69;4887331;29;20814;-81
2023/06/23 04:27:20;;;;;;;10.13;8.50;;;;;;;20.61;74.17;100018.03;4884199;29;20604;-81
2023/06/23 04:29:47;;;;;;;12.17;8.37;;;;;;;20.58;74.06;100023.63;4882777;29;20533;-81
2023/06/23 04:32:15;;;;;;;10.60;7.60;;;;;;;20.57;74.14;100027.31;4881667;29;20477;-80
2023/06/23 04:34:42;;;;;;;12.73;7.40;;;;;;;20.54;74.07;100026.63;4877103;29;20466;-79
2023/06/23 04:37:23;;;;;;;9.13;7.67;;;;;;;20.52;74.18;100028.59;4878951;29;20474;-80
2023/06/23 04:39:56;;;;;;;12.27;8.40;;;;;;;20.52;74.18;100033.06;4883552;29;20972;-81
2023/06/23 04:42:25;;;;;;;10.13;7.83;;;;;;;20.51;74.10;100029.56;4881506;29;20457;-80
2023/06/23 04:44:54;;;;;;;12.90;8.70;;;;;;;20.54;73.96;100031.13;4877628;29;20476;-81
2023/06/23 04:47:25;;;;;;;10.77;7.63;;;;;;;20.56;73.91;100023.81;4880963;29;20455;-81
2023/06/23 04:49:57;;;;;;;11.57;9.10;;;;;;;20.59;73.83;100041.34;4882582;29;20780;-81
2023/06/23 04:52:23;;;;;;;11.70;9.60;;;;;;;20.61;73.57;100036.72;4888770;29;20491;-80
2023/06/23 04:54:52;;;;;;;34.57;12.77;;;;;;;20.63;73.55;100045.38;4881497;29;20976;-81
2023/06/23 04:57:23;;;;;;;11.47;10.20;;;;;;;20.66;73.56;100039.75;4885522;29;20841;-81
2023/06/23 04:59:53;;;;;;;16.93;11.97;;;;;;;20.70;73.08;100049.13;4884982;29;20492;-81
2023/06/23 05:02:20;;;;;;;16.30;13.00;;;;;;;20.71;72.94;100054.34;4889933;29;20753;-80
2023/06/23 05:04:48;;;;;;;15.40;13.05;;;;;;;20.74;72.61;100053.19;4872813;29;20478;-80
2023/06/23 05:07:16;;;;;;;16.10;11.47;;;;;;;20.74;72.45;100054.03;4888951;29;20746;-80
2023/06/23 05:09:46;;;;;;;16.93;12.87;;;;;;;20.74;72.45;100050.53;4880197;29;20470;-80
2023/06/23 05:12:14;;;;;;;17.67;13.80;;;;;;;20.78;72.33;100051.88;4871275;29;20457;-80
2023/06/23 05:14:41;;;;;;;21.80;14.57;;;;;;;20.82;72.01;100045.25;4886314;29;20558;-80
2023/06/23 05:17:09;;;;;;;19.77;13.53;;;;;;;20.85;71.78;100044.94;4886292;29;20443;-80
2023/06/23 05:19:37;;;;;;;20.73;14.27;;;;;;;20.89;71.79;100056.97;4888659;29;20569;-79
2023/06/23 05:22:08;;;;;;;19.10;14.53;;;;;;;20.96;71.52;100058.06;4886536;29;20499;-81
2023/06/23 05:24:37;;;;;;;18.60;13.93;;;;;;;21.05;70.95;100058.97;4889693;29;20475;-81
2023/06/23 05:27:07;;;;;;;20.10;13.13;;;;;;;21.16;70.98;100056.03;4883877;29;20628;-81
2023/06/23 05:29:37;;;;;;;18.77;14.43;;;;;;;21.34;70.37;100061.38;4888650;29;20545;-79
2023/06/23 05:32:06;;;;;;;20.07;14.80;;;;;;;21.56;69.79;100069.91;4889721;29;20625;-81
2023/06/23 05:34:32;;;;;;;22.33;15.30;;;;;;;21.72;68.82;100064.66;4878818;29;20513;-80
2023/06/23 05:37:01;;;;;;;23.53;15.80;;;;;;;21.79;68.61;100065.69;4878134;29;20472;-81
2023/06/23 05:39:29;;;;;;;22.53;17.90;;;;;;;21.83;68.16;100068.88;4885142;29;20454;-81
2023/06/23 05:41:55;;;;;;;24.33;17.10;;;;;;;21.88;68.09;100075.44;4880252;29;20958;-81
2023/06/23 05:44:21;;;;;;;25.20;17.70;;;;;;;21.98;67.81;100074.47;4867689;29;20574;-81
2023/06/23 05:46:49;;;;;;;25.27;18.70;;;;;;;22.14;67.27;100082.56;4879598;29;20465;-82
2023/06/23 05:49:18;;;;;;;20.93;17.50;;;;;;;22.36;66.67;100083.00;4877518;29;20703;-81
2023/06/23 05:51:51;;;;;;;21.60;16.23;;;;;;;22.50;65.71;100080.56;4883669;29;20730;-81
2023/06/23 05:54:20;;;;;;;20.67;15.80;;;;;;;22.49;65.78;100086.94;4881221;29;20812;-81
2023/06/23 05:56:51;;;;;;;20.87;17.50;;;;;;;22.45;65.57;100087.41;4883515;29;20483;-81
2023/06/23 05:59:25;;;;;;;33.80;18.43;;;;;;;22.44;65.76;100085.72;4876876;29;20682;-80
2023/06/23 06:01:56;;;;;;;22.27;16.17;;;;;;;22.41;65.93;100086.03;4884845;29;20483;-80
2023/06/23 06:04:26;;;;;;;20.07;16.53;;;;;;;22.35;65.96;100094.72;4882876;29;21003;-81
2023/06/23 06:06:54;;;;;;;24.10;20.13;;;;;;;22.29;65.92;100101.56;4874083;29;21108;-81
2023/06/23 06:09:20;;;;;;;20.23;17.60;;;;;;;22.23;66.11;100108.41;4876191;29;20518;-81
2023/06/23 06:11:46;;;;;;;22.50;18.43;;;;;;;22.21;65.88;100106.88;4876813;29;20522;-81
2023/06/23 06:14:14;;;;;;;26.07;17.30;;;;;;;22.24;66.00;100107.38;4889198;29;20488;-81
2023/06/23 06:16:42;;;;;;;29.63;19.90;;;;;;;22.26;66.08;100115.28;4892709;29;20746;-81
2023/06/23 06:19:09;;;;;;;24.43;19.37;;;;;;;22.24;66.00;100115.41;4894709;29;20496;-81
2023/06/23 06:21:37;;;;;;;23.67;17.77;;;;;;;22.24;65.82;100118.09;4883170;29;20482;-81
2023/06/23 06:24:05;;;;;;;22.40;19.27;;;;;;;22.24;65.80;100118.09;4875485;29;20491;-81
2023/06/23 06:26:31;;;;;;;23.20;18.57;;;;;;;22.19;65.70;100119.56;4878267;29;20911;-81
2023/06/23 06:28:58;;;;;;;24.87;19.10;;;;;;;22.22;65.62;100113.91;4880379;29;20487;-81
2023/06/23 06:31:27;;;;;;;23.63;17.77;;;;;;;22.55;64.96;100120.25;4874921;29;20211;-81
2023/06/23 06:33:54;;;;;;;25.98;20.73;;;;;;;22.94;63.66;100119.66;4881258;29;20450;-81
2023/06/23 06:36:22;;;;;;;26.27;21.42;;;;;;;23.26;62.63;100126.09;4882113;29;21262;-82
2023/06/23 06:38:51;;;;;;;20.43;16.47;;;;;;;23.57;61.62;100128.91;4886595;29;20220;-81
2023/06/23 06:41:17;;;;;;;25.47;18.37;;;;;;;23.92;60.53;100126.88;4871730;29;20702;-81
2023/06/23 06:43:44;;;;;;;21.10;15.00;;;;;;;24.31;59.29;100128.78;4879000;29;20991;-81
2023/06/23 06:46:11;;;;;;;20.27;16.13;;;;;;;24.79;57.88;100126.88;4880261;29;20956;-81
2023/06/23 06:48:38;;;;;;;23.50;16.20;;;;;;;25.26;56.50;100129.44;4880588;29;20844;-82
2023/06/23 06:51:05;;;;;;;19.60;13.50;;;;;;;25.55;55.18;100130.53;4879017;29;20472;-82
2023/06/23 06:53:31;;;;;;;21.87;15.30;;;;;;;25.56;55.07;100138.41;4876850;29;20479;-82
2023/06/23 06:55:57;;;;;;;15.73;13.60;;;;;;;25.33;55.13;100134.91;4872964;29;20463;-82
2023/06/23 06:58:25;;;;;;;17.23;14.07;;;;;;;24.99;55.68;100133.47;4865794;29;20249;-82
2023/06/23 07:00:53;;;;;;;17.90;14.33;;;;;;;24.67;56.66;100150.63;4968880;23;21556;-78
2023/06/23 07:03:19;;;;;;;15.03;13.07;;;;;;;24.45;57.33;100153.06;4954187;28;20949;-79
2023/06/23 07:05:44;;;;;;;17.73;15.00;;;;;;;24.28;57.70;100154.94;4959093;28;20597;-79
2023/06/23 07:08:10;;;;;;;17.87;13.67;;;;;;;24.11;57.95;100147.94;4961720;28;20785;-78
2023/06/23 07:10:36;;;;;;;16.97;12.63;;;;;;;23.96;58.11;100145.16;4952387;28;20208;-80
2023/06/23 07:13:03;;;;;;;12.13;9.80;;;;;;;23.97;58.01;100146.81;4955126;28;20208;-79
2023/06/23 07:15:29;;;;;;;11.33;8.70;;;;;;;24.48;56.30;100152.72;4950842;28;20682;-78
2023/06/23 07:17:54;;;;;;;10.57;7.67;;;;;;;25.12;53.51;100149.00;4927769;28;20457;-80
2023/06/23 07:20:20;;;;;;;12.93;7.43;;;;;;;25.83;51.06;100150.47;4951662;28;20474;-79
2023/06/23 07:22:45;;;;;;;7.80;5.77;;;;;;;26.44;48.98;100150.31;4950799;28;20542;-78
2023/06/23 07:25:11;;;;;;;6.40;5.50;;;;;;;26.99;47.28;100156.16;4954748;28;20218;-79
2023/06/23 07:27:36;;;;;;;7.30;4.67;;;;;;;27.61;45.21;100151.16;4954276;28;20660;-79
2023/06/23 07:30:03;;;;;;;5.53;5.00;;;;;;;28.16;43.15;100160.28;4951762;28;20654;-78
2023/06/23 07:32:29;;;;;;;4.87;4.37;;;;;;;28.56;41.41;100165.91;4950675;28;20749;-79
2023/06/23 07:34:54;;;;;;;5.87;5.27;;;;;;;28.71;40.71;100161.22;4949873;28;21225;-78
2023/06/23 07:37:19;;;;;;;7.17;4.90;;;;;;;28.41;41.18;100166.88;4950472;28;20700;-80
2023/06/23 07:39:45;;;;;;;6.50;5.07;;;;;;;28.18;41.48;100172.56;4953840;28;20229;-77
2023/06/23 07:42:10;;;;;;;8.07;5.67;;;;;;;28.33;40.85;100172.44;4951018;28;20226;-77
2023/06/23 07:44:36;;;;;;;6.50;5.00;;;;;;;28.53;40.12;100174.44;4951509;28;20216;-77
2023/06/23 07:47:03;;;;;;;5.77;5.07;;;;;;;28.39;40.39;100168.94;4952794;28;20282;-77
2023/06/23 07:49:29;;;;;;;5.20;4.20;;;;;;;28.17;40.37;100170.06;4951487;28;20910;-78
2023/06/23 07:51:59;;;;;;;13.80;8.63;;;;;;;28.15;40.79;100178.34;4950106;28;21056;-79
2023/06/23 07:54:25;;;;;;;11.60;9.30;;;;;;;28.12;41.54;100177.94;4950596;28;20220;-76
2023/06/23 07:56:51;;;;;;;16.13;9.60;;;;;;;28.17;42.43;100183.56;4950983;28;20461;-77
2023/06/23 07:59:16;;;;;;;9.70;8.80;;;;;;;28.24;42.26;100185.25;5598311;23;20929;-77
2023/06/23 08:01:41;;;;;;;9.00;8.10;;;;;;;28.16;42.67;100179.19;4937334;28;20323;-75
2023/06/23 08:04:07;;;;;;;8.63;7.80;;;;;;;28.03;43.03;100182.66;4943426;28;20227;-76
2023/06/23 08:06:32;;;;;;;10.00;7.97;;;;;;;27.70;43.64;100180.47;4933304;28;20222;-76
2023/06/23 08:08:58;;;;;;;7.50;6.73;;;;;;;27.62;43.83;100182.50;4940126;28;20229;-76
2023/06/23 08:11:23;;;;;;;9.07;8.17;;;;;;;27.56;43.37;100176.84;4931027;28;20248;-75
2023/06/23 08:13:50;;;;;;;9.67;7.80;;;;;;;27.39;43.82;100175.47;4930777;29;20208;-75
2023/06/23 08:16:15;;;;;;;7.23;6.50;;;;;;;27.14;44.33;100181.22;4915339;29;20273;-75
2023/06/23 08:18:41;;;;;;;5.93;5.27;;;;;;;27.14;44.34;100183.91;4932197;29;20463;-76
2023/06/23 08:21:07;;;;;;;6.20;5.30;;;;;;;27.38;43.60;100184.56;4932857;29;20242;-76
2023/06/23 08:23:32;;;;;;;7.30;5.80;;;;;;;27.61;41.75;100180.84;4929835;29;20209;-76
2023/06/23 08:25:58;;;;;;;5.97;5.10;;;;;;;27.72;41.20;100191.09;4929678;29;20477;-76
2023/06/23 08:28:23;;;;;;;7.20;6.60;;;;;;;27.89;40.38;100186.28;4932934;29;20706;-75
2023/06/23 08:30:48;;;;;;;6.87;6.00;;;;;;;27.90;41.02;100188.78;4930580;29;20216;-76
2023/06/23 08:33:14;;;;;;;9.47;6.60;;;;;;;27.67;41.12;100188.16;4930668;29;20223;-76
2023/06/23 08:35:39;;;;;;;8.40;6.83;;;;;;;27.46;41.33;100187.13;4931889;29;20462;-76
2023/06/23 08:38:05;;;;;;;5.93;5.33;;;;;;;27.24;40.59;100180.06;4934634;29;20766;-75
2023/06/23 08:40:30;;;;;;;6.80;5.70;;;;;;;27.01;41.36;100186.44;4931104;29;20568;-76
2023/06/23 08:42:57;;;;;;;6.33;5.63;;;;;;;26.88;42.16;100189.81;4910235;29;20469;-76
2023/06/23 08:45:24;;;;;;;9.07;8.17;;;;;;;26.77;42.81;100181.41;4931971;29;20295;-75
2023/06/23 08:47:52;;;;;;;10.53;7.70;;;;;;;26.78;43.79;100185.75;4930269;29;20787;-76
2023/06/23 08:50:20;;;;;;;9.10;8.03;;;;;;;26.78;44.39;100193.84;4932570;29;20476;-76
2023/06/23 08:52:45;;;;;;;8.20;7.33;;;;;;;26.78;44.73;100191.16;4915909;29;21040;-76
2023/06/23 08:55:11;;;;;;;7.70;7.00;;;;;;;26.79;45.28;100204.44;4930114;29;20470;-75
2023/06/23 08:57:38;;;;;;;8.57;7.10;;;;;;;26.98;45.33;100191.38;4931811;29;20203;-75
2023/06/23 09:00:06;;;;;;;10.27;7.30;;;;;;;27.11;44.73;100200.47;4929297;29;20230;-75
2023/06/23 09:02:31;;;;;;;7.53;6.20;;;;;;;27.03;44.72;100207.81;4930299;29;20470;-76
2023/06/23 09:04:57;;;;;;;8.20;7.40;;;;;;;27.00;44.61;100200.13;4929613;28;20475;-76
2023/06/23 09:07:24;;;;;;;11.67;7.60;;;;;;;27.00;44.31;100206.34;4929934;28;20205;-76
2023/06/23 09:09:50;;;;;;;7.47;5.73;;;;;;;27.13;43.94;100208.34;4932687;28;20392;-76
2023/06/23 09:12:20;;;;;;;6.93;6.10;;;;;;;27.38;43.67;100206.16;4931016;29;21050;-76
2023/06/23 09:14:47;;;;;;;6.50;5.90;;;;;;;27.77;42.80;100215.66;4931137;29;20452;-76
2023/06/23 09:17:13;;;;;;;7.43;6.30;;;;;;;27.93;41.37;100212.69;4930310;28;20464;-75
2023/06/23 09:19:42;;;;;;;6.23;5.57;;;;;;;27.80;41.15;100208.00;4930081;28;20851;-76
2023/06/23 09:22:09;;;;;;;8.83;6.30;;;;;;;27.89;41.01;100215.97;4931597;28;20968;-75
2023/06/23 09:24:42;;;;;;;8.40;7.60;;;;;;;28.18;40.59;100212.25;4931511;29;20820;-75
2023/06/23 09:27:08;;;;;;;8.23;5.90;;;;;;;28.34;40.16;100206.53;4932948;28;20854;-75
2023/06/23 09:29:33;;;;;;;7.07;6.47;;;;;;;28.41;39.31;100207.41;4927419;28;21067;-76
2023/06/23 09:32:00;;;;;;;7.73;6.47;;;;;;;28.54;39.87;100205.81;4931907;28;20226;-76
2023/06/23 09:34:34;;;;;;;7.60;5.00;;;;;;;28.65;39.49;100203.41;4934072;29;20848;-76
2023/06/23 09:37:11;;;;;;;6.10;5.50;;;;;;;28.73;38.34;100205.06;4935092;29;20471;-75
2023/06/23 09:39:38;;;;;;;5.80;4.63;;;;;;;28.83;37.97;100212.81;4937079;29;20469;-76
2023/06/23 09:42:11;;;;;;;5.70;4.60;;;;;;;28.85;37.87;100213.47;4932671;29;20476;-76
2023/06/23 09:44:43;;;;;;;4.83;4.33;;;;;;;28.50;37.91;100215.38;4934885;28;20497;-77
2023/06/23 09:47:08;;;;;;;6.27;5.67;;;;;;;28.10;38.16;100223.19;4933437;29;20465;-76
2023/06/23 09:49:39;;;;;;;5.07;4.60;;;;;;;28.09;38.09;100218.84;4937609;29;20849;-76
2023/06/23 09:52:06;;;;;;;5.20;4.73;;;;;;;28.24;37.43;100212.28;4931280;29;20231;-76
2023/06/23 09:54:36;;;;;;;6.07;4.20;;;;;;;28.52;36.92;100208.75;4932027;28;20482;-77
2023/06/23 09:57:12;;;;;;;5.37;4.87;;;;;;;28.78;36.05;100197.19;4933346;29;20473;-76
2023/06/23 09:59:42;;;;;;;5.37;3.93;;;;;;;29.05;35.59;100203.56;4934289;29;20471;-77
2023/06/23 10:02:18;;;;;;;4.33;3.73;;;;;;;29.30;34.92;100198.44;4935577;29;20508;-76
2023/06/23 10:04:44;;;;;;;5.07;4.30;;;;;;;29.38;33.57;100196.53;4934206;29;20823;-76
2023/06/23 10:07:24;;;;;;;4.37;3.97;;;;;;;29.37;33.60;100201.13;4932547;29;21162;-76
2023/06/23 10:09:53;;;;;;;6.97;5.10;;;;;;;29.52;33.63;100195.53;4929564;29;21077;-76
2023/06/23 10:12:25;;;;;;;5.43;4.40;;;;;;;29.67;33.45;100193.47;4933334;29;21199;-76
2023/06/23 10:14:51;;;;;;;4.80;4.40;;;;;;;29.77;33.04;100187.66;4935254;29;20545;-76
2023/06/23 10:17:17;;;;;;;4.77;4.30;;;;;;;29.77;33.31;100190.34;4936231;29;20820;-76
2023/06/23 10:19:50;;;;;;;9.13;4.43;;;;;;;29.82;33.00;100192.44;4932503;29;20545;-76
2023/06/23 10:22:18;;;;;;;4.93;4.27;;;;;;;29.85;32.95;100192.84;4934865;29;20207;-76
2023/06/23 10:24:52;;;;;;;4.17;3.77;;;;;;;29.72;33.30;100203.69;4932376;29;20536;-77
2023/06/23 10:27:22;;;;;;;4.73;4.33;;;;;;;29.50;33.51;100200.31;4929896;29;20479;-76
2023/06/23 10:29:53;;;;;;;4.70;4.17;;;;;;;29.43;33.86;100194.88;4932310;29;20475;-76
2023/06/23 10:32:22;;;;;;;5.00;4.50;;;;;;;29.33;32.81;100195.31;4933074;28;20476;-76
2023/06/23 10:34:50;;;;;;;4.57;3.90;;;;;;;29.40;33.20;100198.00;4933044;29;20970;-77
2023/06/23 10:37:20;;;;;;;5.47;3.77;;;;;;;29.36;33.21;100195.94;4933375;29;20467;-76
2023/06/23 10:39:50;;;;;;;4.13;3.73;;;;;;;29.20;33.51;100192.56;4934863;29;20494;-76
2023/06/23 10:42:20;;;;;;;5.13;3.93;;;;;;;29.14;33.84;100189.84;4936364;29;20829;-76
2023/06/23 10:44:45;;;;;;;4.03;3.73;;;;;;;28.98;33.91;100191.03;4928262;28;20518;-77
2023/06/23 10:47:11;;;;;;;5.17;4.63;;;;;;;28.86;34.36;100197.00;4932457;28;20730;-77
2023/06/23 10:49:36;;;;;;;5.90;4.27;;;;;;;28.78;34.68;100190.94;4936289;28;20694;-76
2023/06/23 10:52:03;;;;;;;4.70;4.30;;;;;;;28.87;34.77;100196.00;4934391;29;20293;-77
2023/06/23 10:54:30;;;;;;;4.83;4.37;;;;;;;28.99;34.47;100193.53;4932750;29;20226;-77
2023/06/23 10:56:56;;;;;;;5.07;4.43;;;;;;;28.94;34.55;100184.34;4933437;29;20483;-77
2023/06/23 10:59:27;;;;;;;4.53;4.20;;;;;;;28.91;34.45;100177.47;4930482;29;20482;-77
2023/06/23 11:02:08;;;;;;;5.33;4.13;;;;;;;28.86;34.06;100186.19;4932948;28;20503;-76
2023/06/23 11:04:38;;;;;;;4.73;4.20;;;;;;;28.70;34.46;100186.56;4928369;28;20470;-76
2023/06/23 11:07:08;;;;;;;5.23;4.13;;;;;;;28.55;34.32;100192.13;4932933;29;20499;-76
2023/06/23 11:09:57;;;;;;;6.40;4.13;;;;;;;28.43;34.67;100191.00;4932890;29;20722;-77
2023/06/23 11:12:31;;;;;;;5.77;4.57;;;;;;;28.25;35.01;100191.53;4933826;29;20507;-77
2023/06/23 11:15:13;;;;;;;5.37;4.87;;;;;;;28.13;34.38;100183.13;4931473;29;20685;-77
2023/06/23 11:17:43;;;;;;;4.97;4.50;;;;;;;28.01;34.91;100188.25;4931543;29;20543;-76
2023/06/23 11:20:26;;;;;;;4.93;4.43;;;;;;;28.06;35.06;100184.97;4933158;28;20476;-76
2023/06/23 11:23:00;;;;;;;4.23;3.93;;;;;;;28.20;34.94;100184.00;4933921;29;20540;-76
2023/06/23 11:25:27;;;;;;;6.20;4.60;;;;;;;28.20;34.87;100184.00;4933778;29;20472;-76
2023/06/23 11:28:33;;;;;;;8.47;4.90;;;;;;;28.14;35.20;100178.53;4932045;29;20528;-77
2023/06/23 11:31:08;;;;;;;4.00;3.60;;;;;;;28.08;35.71;100187.44;4934256;29;20563;-76
2023/06/23 11:33:42;;;;;;;4.60;4.20;;;;;;;28.05;35.65;100185.13;4929905;29;20497;-76
2023/06/23 11:36:14;;;;;;;5.33;3.90;;;;;;;28.13;35.33;100179.59;4934622;29;20988;-76